Time;durP1;ratioP1;P1;durP2;ratioP2;P2;SDS_P1;SDS_P2;PMS_P1;PMS_P2;Temp;Humidity;BMP_temperature;BMP_pressure;BME280_temperature;BME280_humidity;BME280_pressure;Samples;Min_cycle;Max_cycle;Signal;HPM_P1;HPM_P2
2023/09/02 00:00:14;;;;;;;47.72;27.02;;;16.70;99.90;;;;;;5011522;28;20104;-75
2023/09/02 00:02:40;;;;;;;50.05;27.63;;;16.60;99.90;;;;;;5011637;28;20367;-74
2023/09/02 00:05:06;;;;;;;52.70;28.60;;;16.50;99.90;;;;;;5011587;28;20461;-75
2023/09/02 00:07:31;;;;;;;60.67;31.10;;;16.50;99.90;;;;;;5011055;28;20045;-74
2023/09/02 00:09:57;;;;;;;55.05;29.67;;;16.50;99.90;;;;;;5011715;28;20029;-75
2023/09/02 00:12:22;;;;;;;57.83;29.08;;;16.50;99.90;;;;;;5011143;28;20624;-75
2023/09/02 00:14:48;;;;;;;57.10;28.95;;;16.40;99.90;;;;;;5011704;28;20101;-74
2023/09/02 00:17:13;;;;;;;59.92;29.38;;;16.40;99.90;;;;;;4994140;28;20390;-74
2023/09/02 00:19:40;;;;;;;51.08;28.80;;;16.30;99.90;;;;;;5011296;28;20030;-74
2023/09/02 00:22:06;;;;;;;62.10;30.52;;;16.30;99.90;;;;;;5015275;28;20025;-74
2023/09/02 00:24:31;;;;;;;56.33;29.70;;;16.30;99.90;;;;;;5015129;28;20042;-74
2023/09/02 00:26:57;;;;;;;61.17;30.13;;;16.30;99.90;;;;;;5015610;28;20026;-76
2023/09/02 00:29:22;;;;;;;56.13;29.30;;;16.20;99.90;;;;;;5019882;28;20433;-75
2023/09/02 00:31:48;;;;;;;53.67;27.15;;;16.20;99.90;;;;;;5017042;28;20022;-75
2023/09/02 00:34:13;;;;;;;59.92;28.50;;;16.20;99.90;;;;;;5020578;28;20077;-74
2023/09/02 00:36:39;;;;;;;51.38;27.63;;;16.20;99.90;;;;;;5023670;28;20105;-75
2023/09/02 00:39:05;;;;;;;48.47;26.75;;;16.10;99.90;;;;;;5016129;28;20034;-74
2023/09/02 00:41:47;;;;;;;52.95;26.50;;;16.00;99.90;;;;;;5017207;28;20053;-74
2023/09/02 00:44:14;;;;;;;46.85;24.80;;;16.10;99.90;;;;;;5010350;28;20485;-74
2023/09/02 00:46:40;;;;;;;47.47;26.48;;;16.00;99.90;;;;;;5015994;28;20108;-74
2023/09/02 00:49:06;;;;;;;46.40;24.45;;;16.00;99.90;;;;;;5015325;28;20101;-74
2023/09/02 00:51:31;;;;;;;56.83;27.27;;;15.90;99.90;;;;;;5015567;28;20430;-74
2023/09/02 00:53:57;;;;;;;50.28;27.50;;;15.90;99.90;;;;;;5014983;28;20030;-74
2023/09/02 00:56:24;;;;;;;58.42;28.17;;;15.90;99.90;;;;;;5015744;28;20104;-74
2023/09/02 00:58:50;;;;;;;55.58;28.92;;;15.90;99.90;;;;;;5016056;28;20391;-74
2023/09/02 01:01:16;;;;;;;49.67;26.30;;;15.90;99.90;;;;;;5014170;28;20028;-74
2023/09/02 01:03:42;;;;;;;43.95;22.60;;;15.80;99.90;;;;;;5016172;28;20108;-74
2023/09/02 01:06:08;;;;;;;49.45;25.13;;;15.80;99.90;;;;;;5016505;28;20393;-74
2023/09/02 01:08:34;;;;;;;50.80;26.83;;;15.70;99.90;;;;;;5003170;28;20133;-74
2023/09/02 01:11:00;;;;;;;56.97;27.80;;;15.70;99.90;;;;;;5013601;28;20034;-74
2023/09/02 01:13:27;;;;;;;58.67;27.70;;;15.70;99.90;;;;;;5009009;28;20463;-74
2023/09/02 01:15:55;;;;;;;55.65;28.05;;;15.60;99.90;;;;;;5014405;28;20157;-74
2023/09/02 01:18:25;;;;;;;41.58;23.52;;;15.60;99.90;;;;;;5015494;28;20026;-74
2023/09/02 01:21:09;;;;;;;51.03;27.77;;;15.70;99.90;;;;;;5015296;28;20022;-74
2023/09/02 01:24:18;;;;;;;49.58;27.05;;;15.70;99.90;;;;;;5015558;28;20026;-74
2023/09/02 01:27:13;;;;;;;57.60;25.10;;;15.70;99.90;;;;;;4935126;29;20111;-74
2023/09/02 01:29:55;;;;;;;55.80;27.05;;;15.70;99.90;;;;;;5015152;28;20026;-74
2023/09/02 01:32:22;;;;;;;72.88;29.73;;;15.70;99.90;;;;;;5013596;28;20022;-74
2023/09/02 01:34:48;;;;;;;51.75;25.85;;;15.70;99.90;;;;;;5014166;28;20096;-74
2023/09/02 01:37:17;;;;;;;55.25;25.67;;;15.70;99.90;;;;;;5015017;28;20429;-74
2023/09/02 01:39:44;;;;;;;53.38;27.00;;;15.70;99.90;;;;;;5014626;28;20117;-74
2023/09/02 01:42:10;;;;;;;56.50;26.75;;;15.70;99.90;;;;;;5006656;28;20026;-74
2023/09/02 01:44:38;;;;;;;57.63;27.38;;;15.70;99.90;;;;;;5009687;28;20090;-74
2023/09/02 01:47:04;;;;;;;53.53;26.90;;;15.70;99.90;;;;;;5014307;28;20022;-74
2023/09/02 01:49:30;;;;;;;60.10;28.80;;;15.70;99.90;;;;;;5014642;28;20026;-74
2023/09/02 01:51:58;;;;;;;60.22;27.63;;;15.70;99.90;;;;;;5014144;28;20482;-74
2023/09/02 01:54:24;;;;;;;87.30;25.15;;;15.70;99.90;;;;;;5015826;28;20030;-74
2023/09/02 01:56:50;;;;;;;46.63;22.77;;;15.70;99.90;;;;;;5010423;28;20033;-74
2023/09/02 01:59:16;;;;;;;57.63;24.17;;;15.60;99.90;;;;;;5007908;28;20030;-74
2023/09/02 02:01:41;;;;;;;49.97;23.35;;;15.60;99.90;;;;;;5013462;28;20101;-75
2023/09/02 02:04:33;;;;;;;55.63;24.63;;;15.60;99.90;;;;;;5013944;28;20037;-75
2023/09/02 02:07:03;;;;;;;42.90;21.95;;;15.60;99.90;;;;;;5013686;28;20046;-75
2023/09/02 02:09:38;;;;;;;49.83;22.73;;;15.60;99.90;;;;;;5013124;28;20030;-75
2023/09/02 02:12:06;;;;;;;45.80;21.73;;;15.60;99.90;;;;;;5013361;28;20362;-75
2023/09/02 02:14:34;;;;;;;49.13;21.30;;;15.50;99.90;;;;;;5012831;28;20058;-74
2023/09/02 02:17:02;;;;;;;46.92;20.67;;;15.50;99.90;;;;;;5013713;28;20026;-75
2023/09/02 02:19:28;;;;;;;50.00;21.90;;;15.60;99.90;;;;;;4995667;28;20092;-75
2023/09/02 02:21:53;;;;;;;56.78;22.73;;;15.50;99.90;;;;;;5013371;28;20025;-75
2023/09/02 02:24:19;;;;;;;47.88;20.38;;;15.50;99.90;;;;;;5012927;28;20033;-75
2023/09/02 02:26:44;;;;;;;56.95;24.10;;;15.50;99.90;;;;;;5013219;28;20022;-76
2023/09/02 02:29:10;;;;;;;54.35;25.38;;;15.50;99.90;;;;;;5013478;28;20034;-72
2023/09/02 02:31:36;;;;;;;49.38;22.65;;;15.60;99.90;;;;;;5013278;28;20030;-75
2023/09/02 02:34:02;;;;;;;48.10;23.02;;;15.60;99.90;;;;;;5011480;28;20029;-75
2023/09/02 02:36:28;;;;;;;53.47;21.58;;;15.60;99.90;;;;;;5012726;28;20020;-75
2023/09/02 02:38:54;;;;;;;56.58;23.23;;;15.60;99.90;;;;;;5013082;28;20041;-75
2023/09/02 02:41:19;;;;;;;42.20;20.17;;;15.60;99.90;;;;;;5012703;28;20057;-74
2023/09/02 02:43:45;;;;;;;38.30;18.92;;;15.60;99.90;;;;;;5012863;28;20507;-74
2023/09/02 02:46:10;;;;;;;34.97;17.75;;;15.60;99.90;;;;;;5013297;28;20026;-74
2023/09/02 02:48:36;;;;;;;52.40;21.60;;;15.60;99.90;;;;;;5012723;28;20026;-75
2023/09/02 02:51:01;;;;;;;49.13;21.27;;;15.60;99.90;;;;;;5013108;28;20366;-75
2023/09/02 02:53:27;;;;;;;57.78;23.25;;;15.60;99.90;;;;;;4995018;28;20774;-75
2023/09/02 02:55:52;;;;;;;55.10;24.33;;;15.50;99.90;;;;;;5012822;28;20025;-75
2023/09/02 02:58:18;;;;;;;63.88;25.15;;;15.50;99.90;;;;;;5012645;28;20033;-75
2023/09/02 03:00:46;;;;;;;80.63;27.10;;;15.40;99.90;;;;;;5012304;28;20018;-74
2023/09/02 03:03:12;;;;;;;90.80;29.00;;;15.40;99.90;;;;;;5010697;28;20533;-75
2023/09/02 03:05:41;;;;;;;67.85;28.60;;;15.40;99.90;;;;;;5011572;28;20133;-75
2023/09/02 03:08:08;;;;;;;84.10;27.45;;;15.40;99.90;;;;;;5012041;28;20065;-74
2023/09/02 03:10:35;;;;;;;69.93;26.90;;;15.40;99.90;;;;;;4994858;28;20469;-76
2023/09/02 03:13:02;;;;;;;72.97;26.45;;;15.30;99.90;;;;;;5012413;28;20029;-75
2023/09/02 03:15:28;;;;;;;75.22;26.95;;;15.30;99.90;;;;;;5012181;28;20053;-75
2023/09/02 03:17:53;;;;;;;80.25;28.67;;;15.30;99.90;;;;;;5012788;28;20403;-75
2023/09/02 03:20:19;;;;;;;65.07;28.23;;;15.30;99.90;;;;;;5012054;28;20117;-75
2023/09/02 03:22:44;;;;;;;59.80;24.30;;;15.40;99.90;;;;;;5012470;28;20102;-75
2023/09/02 03:25:10;;;;;;;59.17;23.15;;;15.40;99.90;;;;;;5012330;28;20060;-75
2023/09/02 03:27:42;;;;;;;58.35;21.42;;;15.40;99.90;;;;;;5010291;28;20057;-75
2023/09/02 03:30:08;;;;;;;63.63;22.42;;;15.50;99.90;;;;;;5008223;28;20033;-75
2023/09/02 03:32:34;;;;;;;64.00;26.60;;;15.50;99.90;;;;;;4994377;28;20124;-75
2023/09/02 03:34:59;;;;;;;82.10;27.70;;;15.50;99.90;;;;;;5011725;28;20051;-75
2023/09/02 03:37:26;;;;;;;73.22;26.88;;;15.50;99.90;;;;;;5011632;28;20109;-75
2023/09/02 03:39:53;;;;;;;54.75;24.38;;;15.50;99.90;;;;;;5012440;28;20030;-75
2023/09/02 03:42:19;;;;;;;54.08;25.27;;;15.50;99.90;;;;;;5011719;28;20077;-75
2023/09/02 03:44:44;;;;;;;61.25;24.63;;;15.60;99.90;;;;;;5012007;28;20030;-75
2023/09/02 03:47:10;;;;;;;57.85;23.50;;;15.60;99.90;;;;;;5011896;28;20030;-75
2023/09/02 03:49:35;;;;;;;92.85;25.52;;;15.60;99.90;;;;;;5011379;28;20109;-74
2023/09/02 03:52:01;;;;;;;59.92;23.00;;;15.50;99.90;;;;;;5011932;28;20072;-75
2023/09/02 03:54:26;;;;;;;66.70;25.00;;;15.60;99.90;;;;;;5011397;28;20025;-75
2023/09/02 03:56:52;;;;;;;59.58;21.80;;;15.60;99.90;;;;;;5005035;28;20022;-74
2023/09/02 03:59:19;;;;;;;67.97;24.63;;;15.50;99.90;;;;;;5001589;28;20394;-75
2023/09/02 04:01:45;;;;;;;205.35;27.95;;;15.60;99.90;;;;;;5011896;28;20036;-75
2023/09/02 04:04:10;;;;;;;107.20;24.23;;;15.60;99.90;;;;;;5011781;28;20033;-75
2023/09/02 04:06:37;;;;;;;185.52;28.23;;;15.50;99.90;;;;;;5010939;28;20052;-75
2023/09/02 04:09:05;;;;;;;139.43;25.33;;;15.50;99.90;;;;;;5011648;28;20044;-75
2023/09/02 04:11:30;;;;;;;99.90;24.33;;;15.50;99.90;;;;;;5011127;28;20101;-75
2023/09/02 04:13:56;;;;;;;154.93;25.27;;;15.50;99.90;;;;;;5011440;28;20101;-75
2023/09/02 04:16:21;;;;;;;95.63;24.05;;;15.50;99.90;;;;;;5010879;28;20032;-75
2023/09/02 04:18:47;;;;;;;68.45;24.08;;;15.50;99.90;;;;;;5011588;28;20034;-75
2023/09/02 04:21:12;;;;;;;92.20;23.35;;;15.40;99.90;;;;;;5011456;28;20049;-74
2023/09/02 04:23:38;;;;;;;112.68;23.70;;;15.50;99.90;;;;;;5010829;28;20022;-75
2023/09/02 04:26:04;;;;;;;122.50;25.95;;;15.50;99.90;;;;;;5011551;28;20034;-75
2023/09/02 04:28:30;;;;;;;82.65;24.23;;;15.50;99.90;;;;;;5010676;28;20030;-76
2023/09/02 04:30:57;;;;;;;145.27;25.77;;;15.60;99.90;;;;;;5011542;28;20034;-74
2023/09/02 04:33:26;;;;;;;134.80;25.13;;;15.60;99.90;;;;;;5011211;28;20486;-75
2023/09/02 04:35:52;;;;;;;85.13;22.95;;;15.50;99.90;;;;;;5011462;28;20429;-75
2023/09/02 04:38:17;;;;;;;200.98;27.88;;;15.50;99.90;;;;;;5010594;28;20029;-74
2023/09/02 04:40:44;;;;;;;229.73;29.50;;;15.50;99.90;;;;;;5011341;28;20026;-75
2023/09/02 04:43:12;;;;;;;268.00;30.10;;;15.60;99.90;;;;;;5011292;28;20029;-75
2023/09/02 04:45:39;;;;;;;123.40;25.38;;;15.50;99.90;;;;;;5010763;28;20084;-75
2023/09/02 04:48:06;;;;;;;86.43;25.58;;;15.60;99.90;;;;;;5011349;28;20497;-75
2023/09/02 04:50:32;;;;;;;81.72;24.48;;;15.60;99.90;;;;;;5010570;28;20363;-75
2023/09/02 04:52:59;;;;;;;79.03;23.77;;;15.60;99.90;;;;;;5011333;28;20029;-75
2023/09/02 04:55:26;;;;;;;128.60;26.80;;;15.60;99.90;;;;;;5011282;28;20100;-75
2023/09/02 04:57:53;;;;;;;100.63;23.75;;;15.60;99.90;;;;;;5010059;28;20508;-75
2023/09/02 05:00:19;;;;;;;169.98;28.23;;;15.60;99.90;;;;;;5010228;28;20124;-75
2023/09/02 05:02:48;;;;;;;103.72;27.70;;;15.60;99.90;;;;;;5010070;28;20050;-76
2023/09/02 05:05:15;;;;;;;274.70;30.85;;;15.60;99.90;;;;;;5011066;28;20113;-75
2023/09/02 05:07:40;;;;;;;264.50;34.05;;;15.60;99.90;;;;;;5013061;28;20560;-75
2023/09/02 05:10:06;;;;;;;270.98;32.40;;;15.70;99.90;;;;;;5014812;28;20030;-74
2023/09/02 05:12:33;;;;;;;267.58;30.63;;;15.70;99.90;;;;;;5014281;28;20026;-75
2023/09/02 05:14:59;;;;;;;298.52;33.17;;;15.80;99.90;;;;;;5014479;28;20092;-76
2023/09/02 05:17:25;;;;;;;383.83;35.63;;;15.80;99.90;;;;;;4996532;28;20371;-77
2023/09/02 05:19:51;;;;;;;422.13;38.65;;;15.80;99.90;;;;;;5014715;28;20033;-75
2023/09/02 05:22:16;;;;;;;102.70;26.90;;;15.80;99.90;;;;;;5013956;28;20025;-74
2023/09/02 05:24:42;;;;;;;71.88;24.83;;;15.90;99.90;;;;;;5014558;28;20049;-75
2023/09/02 05:27:07;;;;;;;77.45;26.33;;;15.90;99.90;;;;;;5013886;28;20064;-75
2023/09/02 05:29:33;;;;;;;108.97;26.73;;;15.90;99.90;;;;;;5014050;28;20072;-75
2023/09/02 05:31:58;;;;;;;151.82;27.92;;;16.00;99.90;;;;;;5012793;28;20029;-75
2023/09/02 05:34:24;;;;;;;120.10;26.95;;;16.00;99.90;;;;;;5013389;28;20030;-75
2023/09/02 05:36:49;;;;;;;66.82;24.77;;;16.00;99.90;;;;;;5014428;28;20497;-75
2023/09/02 05:39:15;;;;;;;78.03;26.55;;;16.00;99.90;;;;;;5013725;28;20029;-75
2023/09/02 05:41:40;;;;;;;127.82;29.17;;;16.10;99.90;;;;;;5013861;28;20470;-75
2023/09/02 05:44:06;;;;;;;139.43;27.35;;;16.10;99.90;;;;;;5013530;28;20022;-75
2023/09/02 05:46:31;;;;;;;64.85;25.88;;;16.20;99.90;;;;;;5013273;28;20825;-75
2023/09/02 05:48:57;;;;;;;100.82;27.38;;;16.20;99.90;;;;;;5013417;28;20025;-75
2023/09/02 05:51:22;;;;;;;92.30;28.15;;;16.20;99.90;;;;;;5013365;28;20470;-75
2023/09/02 05:53:48;;;;;;;97.65;29.30;;;16.20;99.90;;;;;;5013543;28;20068;-74
2023/09/02 05:56:13;;;;;;;129.68;29.45;;;16.30;99.90;;;;;;5002657;28;20474;-75
2023/09/02 05:58:39;;;;;;;99.50;28.90;;;16.40;99.90;;;;;;5000128;28;20025;-75
2023/09/02 06:01:05;;;;;;;220.30;32.42;;;16.40;99.90;;;;;;5013848;28;20041;-74
2023/09/02 06:03:30;;;;;;;126.70;31.73;;;16.40;99.90;;;;;;5013178;28;20068;-75
2023/09/02 06:05:56;;;;;;;146.38;31.60;;;16.50;99.90;;;;;;5013617;28;20037;-75
2023/09/02 06:08:22;;;;;;;136.07;32.28;;;16.60;99.90;;;;;;5012659;28;20053;-75
2023/09/02 06:11:00;;;;;;;217.00;33.20;;;16.60;99.90;;;;;;5012351;28;20394;-75
2023/09/02 06:13:26;;;;;;;133.27;30.33;;;16.70;99.90;;;;;;5013237;28;20025;-75
2023/09/02 06:15:51;;;;;;;138.63;31.08;;;16.70;99.90;;;;;;5013536;28;20030;-75
2023/09/02 06:18:17;;;;;;;75.38;26.50;;;16.80;99.90;;;;;;5012529;28;20034;-75
2023/09/02 06:20:43;;;;;;;119.15;30.20;;;16.80;99.90;;;;;;5013664;28;20032;-75
2023/09/02 06:23:08;;;;;;;93.05;26.05;;;16.80;99.90;;;;;;5013674;28;20490;-75
2023/09/02 06:25:33;;;;;;;67.63;25.27;;;16.80;99.90;;;;;;5012528;28;20120;-75
2023/09/02 06:27:59;;;;;;;358.05;39.85;;;16.80;99.90;;;;;;5011772;28;20029;-74
2023/09/02 06:30:24;;;;;;;113.43;29.42;;;16.80;99.90;;;;;;5012723;28;20033;-75
2023/09/02 06:32:51;;;;;;;95.85;30.55;;;16.90;99.90;;;;;;5006513;28;20034;-75
2023/09/02 06:35:16;;;;;;;172.18;33.95;;;16.90;99.90;;;;;;5012090;28;20431;-74
2023/09/02 06:37:42;;;;;;;194.80;36.13;;;17.00;99.90;;;;;;5013246;28;20108;-75
2023/09/02 06:40:08;;;;;;;90.72;31.15;;;17.10;99.90;;;;;;5013370;28;20038;-75
2023/09/02 06:42:34;;;;;;;125.38;33.42;;;17.10;99.90;;;;;;5012751;28;20046;-75
2023/09/02 06:45:00;;;;;;;125.03;33.75;;;17.20;99.90;;;;;;5013145;28;20091;-75
2023/09/02 06:47:25;;;;;;;147.70;31.85;;;17.20;99.90;;;;;;5012449;28;20466;-75
2023/09/02 06:49:51;;;;;;;59.70;26.30;;;17.30;99.90;;;;;;5012979;28;20134;-74
2023/09/02 06:52:16;;;;;;;91.57;27.95;;;17.30;99.90;;;;;;5012524;28;20026;-74
2023/09/02 06:54:42;;;;;;;263.10;36.05;;;17.30;99.90;;;;;;5012873;28;20033;-75
2023/09/02 06:57:07;;;;;;;133.68;31.52;;;17.40;99.90;;;;;;5012950;28;20026;-75
2023/09/02 06:59:34;;;;;;;185.90;35.60;;;17.40;99.90;;;;;;5012424;28;20125;-74
2023/09/02 07:01:59;;;;;;;128.18;30.67;;;17.50;99.90;;;;;;4995651;28;20034;-75
2023/09/02 07:04:25;;;;;;;214.23;33.47;;;17.50;99.90;;;;;;4995431;28;20044;-74
2023/09/02 07:06:51;;;;;;;103.55;32.70;;;17.50;99.90;;;;;;5012603;28;20034;-74
2023/09/02 07:09:17;;;;;;;292.55;41.50;;;17.60;99.90;;;;;;5012091;28;20076;-76
2023/09/02 07:11:42;;;;;;;331.33;41.22;;;17.60;99.90;;;;;;5012853;28;20026;-74
2023/09/02 07:14:07;;;;;;;144.93;31.83;;;17.70;99.90;;;;;;4994702;28;20046;-75
2023/09/02 07:16:33;;;;;;;103.13;32.05;;;17.70;99.90;;;;;;5012124;28;20482;-74
2023/09/02 07:19:02;;;;;;;92.45;28.92;;;17.70;99.90;;;;;;5012358;28;20022;-74
2023/09/02 07:21:28;;;;;;;92.10;32.65;;;17.70;99.90;;;;;;5012073;28;20022;-75
2023/09/02 07:23:54;;;;;;;103.70;32.00;;;17.70;99.90;;;;;;5012323;28;20394;-74
2023/09/02 07:26:19;;;;;;;95.35;33.92;;;17.70;99.90;;;;;;5011541;28;20054;-75
2023/09/02 07:28:45;;;;;;;121.80;34.22;;;17.80;99.90;;;;;;5012398;28;20022;-74
2023/09/02 07:31:11;;;;;;;176.35;39.83;;;17.80;99.90;;;;;;5008415;28;20030;-74
2023/09/02 07:33:36;;;;;;;68.65;29.92;;;17.80;99.90;;;;;;5011717;28;20029;-74
2023/09/02 07:36:12;;;;;;;75.38;31.17;;;17.80;99.90;;;;;;5012227;28;20115;-75
2023/09/02 07:38:39;;;;;;;104.32;34.72;;;17.80;99.90;;;;;;5011606;28;20048;-74
2023/09/02 07:41:05;;;;;;;114.95;34.33;;;17.90;99.90;;;;;;5012302;28;20033;-74
2023/09/02 07:43:32;;;;;;;164.80;39.55;;;17.80;99.90;;;;;;5011456;28;20100;-74
2023/09/02 07:45:57;;;;;;;93.05;35.30;;;17.90;99.90;;;;;;5006182;28;20037;-74
2023/09/02 07:48:23;;;;;;;65.43;29.20;;;18.00;99.90;;;;;;5011662;28;20029;-74
2023/09/02 07:50:48;;;;;;;54.88;28.00;;;18.10;99.90;;;;;;5011916;28;20544;-75
2023/09/02 07:53:14;;;;;;;63.92;30.95;;;18.10;99.90;;;;;;5011827;28;20489;-74
2023/09/02 07:55:40;;;;;;;62.88;31.58;;;18.00;99.90;;;;;;5011394;28;20052;-75
2023/09/02 07:58:05;;;;;;;80.72;33.13;;;18.10;99.90;;;;;;5011825;28;20022;-74
2023/09/02 08:00:35;;;;;;;55.58;29.02;;;18.10;99.90;;;;;;5005909;28;20105;-74
2023/09/02 08:03:01;;;;;;;61.13;32.03;;;18.20;99.90;;;;;;4994260;28;20092;-75
2023/09/02 08:05:26;;;;;;;63.08;34.03;;;18.20;99.90;;;;;;5011376;28;20505;-74
2023/09/02 08:07:52;;;;;;;60.55;31.17;;;18.30;99.90;;;;;;5011531;28;20050;-74
2023/09/02 08:10:18;;;;;;;68.57;34.58;;;18.30;99.90;;;;;;5011327;28;20076;-74
2023/09/02 08:12:44;;;;;;;60.22;31.55;;;18.30;99.90;;;;;;5011437;28;20029;-74
2023/09/02 08:15:10;;;;;;;66.72;34.30;;;18.30;99.90;;;;;;5011662;28;20053;-75
2023/09/02 08:17:37;;;;;;;69.18;34.97;;;18.40;99.90;;;;;;5011068;28;20022;-75
2023/09/02 08:20:03;;;;;;;70.43;33.13;;;18.40;99.90;;;;;;5011564;28;20026;-74
2023/09/02 08:22:29;;;;;;;67.22;35.05;;;18.50;99.90;;;;;;5011187;28;20022;-75
2023/09/02 08:24:55;;;;;;;76.90;37.97;;;18.50;99.90;;;;;;5011307;28;20041;-74
2023/09/02 08:27:21;;;;;;;72.00;37.08;;;18.40;99.90;;;;;;5011273;28;20112;-75
2023/09/02 08:29:46;;;;;;;66.45;34.33;;;18.40;99.90;;;;;;5009752;28;20057;-73
2023/09/02 08:32:12;;;;;;;60.60;32.72;;;18.50;99.90;;;;;;5010640;28;20037;-74
2023/09/02 08:34:37;;;;;;;58.03;32.25;;;18.50;99.90;;;;;;5010955;28;20034;-75
2023/09/02 08:37:03;;;;;;;61.97;33.97;;;18.50;99.90;;;;;;5011580;28;20060;-74
2023/09/02 08:39:29;;;;;;;54.88;30.20;;;18.40;99.90;;;;;;5010460;28;20069;-74
2023/09/02 08:41:55;;;;;;;60.55;30.20;;;18.30;99.90;;;;;;5012795;28;20374;-74
2023/09/02 08:44:22;;;;;;;55.58;29.88;;;18.30;99.90;;;;;;5014798;28;20065;-74
2023/09/02 08:46:51;;;;;;;56.60;31.75;;;18.30;99.90;;;;;;5015213;28;20049;-74
2023/09/02 08:49:17;;;;;;;60.22;32.78;;;18.30;99.90;;;;;;5015166;28;20025;-74
2023/09/02 08:51:44;;;;;;;56.25;30.48;;;18.30;99.90;;;;;;4997371;28;20490;-74
2023/09/02 08:54:12;;;;;;;57.10;32.42;;;18.30;99.90;;;;;;5015149;28;20072;-75
2023/09/02 08:56:41;;;;;;;58.63;31.33;;;18.40;99.90;;;;;;5014718;28;20026;-74
2023/09/02 08:59:11;;;;;;;59.63;33.00;;;18.50;99.90;;;;;;5014940;28;20033;-75
2023/09/02 09:01:42;;;;;;;68.55;37.05;;;18.60;99.90;;;;;;5013800;28;20026;-74
2023/09/02 09:04:08;;;;;;;56.88;32.22;;;18.80;99.90;;;;;;5015079;28;20033;-74
2023/09/02 09:06:36;;;;;;;48.45;28.75;;;18.90;99.90;;;;;;5014294;28;20038;-75
2023/09/02 09:09:03;;;;;;;52.58;31.42;;;18.90;99.90;;;;;;5015140;28;20089;-75
2023/09/02 09:11:32;;;;;;;44.97;27.73;;;18.90;99.90;;;;;;5014362;28;20382;-75
2023/09/02 09:14:01;;;;;;;47.97;30.10;;;19.00;99.90;;;;;;5012903;28;20034;-75
2023/09/02 09:16:31;;;;;;;43.83;28.58;;;19.10;99.90;;;;;;5014571;28;20022;-74
2023/09/02 09:18:57;;;;;;;46.63;30.00;;;19.10;99.90;;;;;;5014831;28;20056;-74
2023/09/02 09:21:23;;;;;;;45.80;28.95;;;19.10;99.90;;;;;;4996189;28;20026;-74
2023/09/02 09:23:49;;;;;;;46.25;29.40;;;19.10;99.90;;;;;;5014692;28;20037;-74
2023/09/02 09:26:15;;;;;;;53.47;30.85;;;19.10;99.90;;;;;;5013800;28;20030;-74
2023/09/02 09:28:51;;;;;;;49.47;30.38;;;19.10;99.90;;;;;;5014653;28;20383;-74
2023/09/02 09:31:17;;;;;;;47.47;29.92;;;19.30;99.90;;;;;;5009192;28;20026;-75
2023/09/02 09:33:54;;;;;;;46.38;29.35;;;19.40;99.90;;;;;;5014423;28;20030;-74
2023/09/02 09:36:21;;;;;;;39.67;26.33;;;19.50;99.90;;;;;;5013699;28;20018;-75
2023/09/02 09:38:49;;;;;;;38.47;26.38;;;19.60;99.90;;;;;;5014063;28;20045;-75
2023/09/02 09:41:14;;;;;;;40.42;27.13;;;19.60;99.90;;;;;;5013857;28;20030;-74
2023/09/02 09:43:40;;;;;;;44.40;29.45;;;19.80;99.90;;;;;;5014469;28;20037;-74
2023/09/02 09:46:05;;;;;;;43.83;28.92;;;19.90;99.90;;;;;;5014045;28;20513;-74
2023/09/02 09:48:31;;;;;;;48.83;29.88;;;20.00;99.90;;;;;;5013828;28;20088;-74
2023/09/02 09:50:56;;;;;;;42.80;28.73;;;20.00;99.90;;;;;;5006333;28;20030;-72
2023/09/02 09:53:24;;;;;;;47.40;29.48;;;20.10;99.90;;;;;;5000351;28;20107;-74
2023/09/02 09:55:50;;;;;;;45.20;28.58;;;20.20;99.90;;;;;;5013793;28;20022;-74
2023/09/02 09:58:21;;;;;;;41.95;27.88;;;20.30;99.90;;;;;;5013736;28;20029;-74
2023/09/02 10:00:51;;;;;;;36.38;23.05;;;20.40;99.90;;;;;;5013896;28;20034;-74
2023/09/02 10:03:16;;;;;;;41.13;26.80;;;20.50;99.90;;;;;;5013039;28;20018;-74
2023/09/02 10:05:43;;;;;;;48.78;34.17;;;20.50;99.90;;;;;;5013692;28;20034;-74
2023/09/02 10:08:09;;;;;;;39.42;27.52;;;20.50;99.90;;;;;;5013390;28;20046;-74
2023/09/02 10:10:37;;;;;;;35.22;25.20;;;20.50;99.90;;;;;;5013366;28;20108;-74
2023/09/02 10:13:03;;;;;;;38.58;27.00;;;20.60;99.90;;;;;;5013763;28;20536;-74
2023/09/02 10:15:30;;;;;;;36.80;24.83;;;20.70;99.90;;;;;;5013388;28;20117;-74
2023/09/02 10:18:01;;;;;;;38.50;25.40;;;20.80;99.90;;;;;;5012998;28;20051;-74
2023/09/02 10:20:28;;;;;;;43.13;29.08;;;20.90;99.90;;;;;;5013455;28;20059;-74
2023/09/02 10:23:01;;;;;;;43.20;28.30;;;21.10;99.90;;;;;;5013109;28;20072;-74
2023/09/02 10:25:29;;;;;;;38.70;26.83;;;21.10;99.90;;;;;;5012946;28;20034;-74
2023/09/02 10:28:07;;;;;;;37.70;25.60;;;21.20;99.90;;;;;;5013444;28;20022;-74
2023/09/02 10:30:42;;;;;;;38.40;25.45;;;21.20;99.90;;;;;;5012920;28;20033;-74
2023/09/02 10:33:34;;;;;;;39.38;27.98;;;21.20;99.90;;;;;;5013636;28;20057;-74
2023/09/02 10:36:02;;;;;;;40.00;28.73;;;21.30;99.90;;;;;;5006217;28;20466;-74
2023/09/02 10:38:31;;;;;;;34.17;25.40;;;21.50;99.90;;;;;;4993490;28;20034;-74
2023/09/02 10:41:10;;;;;;;38.42;26.35;;;21.60;99.90;;;;;;5013172;28;20022;-74
2023/09/02 10:43:38;;;;;;;35.45;25.52;;;21.70;99.90;;;;;;5012488;28;20029;-74
2023/09/02 10:46:04;;;;;;;34.42;25.88;;;21.60;99.90;;;;;;5012325;28;20030;-74
2023/09/02 10:48:29;;;;;;;30.40;22.45;;;21.60;99.90;;;;;;5012484;28;20022;-74
2023/09/02 10:50:55;;;;;;;36.38;27.52;;;21.70;99.90;;;;;;5012647;28;20022;-74
2023/09/02 10:53:53;;;;;;;33.58;24.75;;;21.90;99.90;;;;;;5012468;28;20105;-74
2023/09/02 10:56:27;;;;;;;31.17;23.92;;;22.10;99.90;;;;;;5012448;28;20018;-74
2023/09/02 10:58:53;;;;;;;33.17;23.40;;;22.20;99.90;;;;;;5012904;28;20060;-74
2023/09/02 11:01:19;;;;;;;31.30;24.05;;;22.10;99.90;;;;;;5012446;28;20427;-74
2023/09/02 11:03:54;;;;;;;29.42;22.27;;;22.10;99.90;;;;;;5012522;28;20022;-74
2023/09/02 11:06:20;;;;;;;30.27;23.60;;;22.20;99.90;;;;;;5012334;28;20048;-75
2023/09/02 11:08:50;;;;;;;28.77;23.27;;;22.20;99.90;;;;;;5012635;28;20441;-75
2023/09/02 11:11:17;;;;;;;30.33;23.15;;;22.20;99.90;;;;;;5012551;28;20081;-74
2023/09/02 11:14:10;;;;;;;28.55;21.52;;;22.40;99.90;;;;;;5012994;28;20053;-74
2023/09/02 11:16:41;;;;;;;27.35;22.63;;;22.50;99.90;;;;;;5001581;28;20030;-74
2023/09/02 11:19:11;;;;;;;27.65;22.23;;;22.50;99.90;;;;;;5008889;28;20026;-74
2023/09/02 11:21:40;;;;;;;26.35;21.05;;;22.60;99.90;;;;;;5012145;28;20022;-74
2023/09/02 11:24:20;;;;;;;29.52;21.27;;;22.50;99.90;;;;;;5012198;28;20026;-74
2023/09/02 11:27:04;;;;;;;26.95;20.33;;;22.50;99.90;;;;;;5012367;28;20080;-74
2023/09/02 11:29:30;;;;;;;25.83;21.00;;;22.60;99.90;;;;;;4991927;28;20040;-74
2023/09/02 11:32:01;;;;;;;24.13;21.55;;;22.50;99.90;;;;;;5012224;28;20033;-74
2023/09/02 11:34:27;;;;;;;23.02;20.05;;;22.50;99.90;;;;;;5011700;28;20026;-74
2023/09/02 11:36:57;;;;;;;24.80;21.75;;;22.60;99.90;;;;;;5010710;28;20486;-74
2023/09/02 11:39:32;;;;;;;21.83;19.52;;;22.50;99.90;;;;;;5011813;28;20470;-74
2023/09/02 11:42:10;;;;;;;22.48;18.98;;;22.50;99.90;;;;;;5012100;28;20041;-74
2023/09/02 11:44:36;;;;;;;22.20;19.92;;;22.50;99.90;;;;;;5011505;28;20080;-74
2023/09/02 11:47:03;;;;;;;18.55;16.60;;;22.40;99.90;;;;;;5012121;28;20037;-74
2023/09/02 11:49:28;;;;;;;17.10;15.27;;;22.40;99.90;;;;;;5011314;28;20045;-74
2023/09/02 11:51:54;;;;;;;19.08;16.85;;;22.30;99.90;;;;;;5012008;28;20022;-74
2023/09/02 11:54:20;;;;;;;20.30;18.15;;;22.30;99.90;;;;;;5012041;28;20397;-74
2023/09/02 11:57:00;;;;;;;21.42;17.77;;;22.20;99.90;;;;;;5011686;28;20022;-74
2023/09/02 11:59:26;;;;;;;20.15;16.73;;;22.10;99.90;;;;;;5011573;28;20026;-74
2023/09/02 12:02:08;;;;;;;20.95;17.15;;;22.00;99.90;;;;;;5011783;28;20040;-74
2023/09/02 12:04:37;;;;;;;17.38;15.57;;;22.10;99.90;;;;;;5011632;28;20625;-74
2023/09/02 12:07:05;;;;;;;21.25;16.40;;;22.10;99.90;;;;;;5011066;28;20050;-74
2023/09/02 12:09:30;;;;;;;17.30;15.50;;;22.20;99.90;;;;;;4993794;28;20045;-75
2023/09/02 12:11:57;;;;;;;17.58;15.57;;;22.20;99.90;;;;;;5011758;28;20426;-74
2023/09/02 12:14:22;;;;;;;14.98;13.38;;;22.20;99.90;;;;;;5011154;28;20021;-74
2023/09/02 12:16:48;;;;;;;15.00;13.40;;;22.20;99.90;;;;;;5011071;28;20482;-74
2023/09/02 12:19:14;;;;;;;17.85;14.63;;;22.20;99.90;;;;;;5011327;28;20054;-74
2023/09/02 12:21:40;;;;;;;15.05;13.55;;;22.30;99.90;;;;;;5011668;28;20558;-74
2023/09/02 12:24:06;;;;;;;16.35;14.65;;;22.30;99.90;;;;;;5011369;28;20462;-75
2023/09/02 12:26:31;;;;;;;15.35;13.75;;;22.40;99.90;;;;;;5011034;28;20034;-74